Time;durP1;ratioP1;P1;durP2;ratioP2;P2;SDS_P1;SDS_P2;PMS_P1;PMS_P2;Temp;Humidity;BMP_temperature;BMP_pressure;BME280_temperature;BME280_humidity;BME280_pressure;Samples;Min_cycle;Max_cycle;Signal;HPM_P1;HPM_P2
2023/11/10 00:01:06;;;;;;;16.95;3.25;;;7.10;99.90;;;6.43;100.00;100055.31;4219100;28;20027;-69
2023/11/10 00:03:07;;;;;;;13.77;2.88;;;7.10;99.90;;;6.46;100.00;100065.50;4222459;28;20020;-69
2023/11/10 00:05:09;;;;;;;8.43;2.28;;;7.10;99.90;;;6.41;100.00;100059.06;4218911;28;20028;-70
2023/11/10 00:07:10;;;;;;;13.40;2.55;;;7.00;99.90;;;6.39;100.00;100061.81;4234583;28;20023;-70
2023/11/10 00:09:14;;;;;;;10.55;2.40;;;7.00;99.90;;;6.37;100.00;100052.47;4217556;28;20030;-70
2023/11/10 00:11:15;;;;;;;;;;;7.00;99.90;;;6.39;100.00;100064.44;4219251;28;20031;-70
2023/11/10 00:13:16;;;;;;;9.35;2.70;;;7.00;99.90;;;6.47;100.00;100058.47;4220092;28;19915;-70
2023/11/10 00:15:16;;;;;;;7.85;2.28;;;7.00;99.90;;;6.41;100.00;100049.41;4219032;28;20047;-69
2023/11/10 00:17:17;;;;;;;10.40;2.95;;;7.00;99.90;;;6.44;100.00;100051.75;4234534;28;20429;-69
2023/11/10 00:19:18;;;;;;;6.97;2.38;;;7.10;99.90;;;6.44;100.00;100048.28;4220251;28;20024;-69
2023/11/10 00:21:19;;;;;;;8.75;2.10;;;7.10;99.90;;;6.38;100.00;100041.84;4235578;28;20027;-69
2023/11/10 00:23:20;;;;;;;14.65;3.15;;;7.10;99.90;;;6.38;100.00;100044.47;4234502;28;20023;-69
2023/11/10 00:25:21;;;;;;;10.27;3.25;;;7.00;99.90;;;6.39;100.00;100040.06;4223031;28;20506;-69
2023/11/10 00:27:22;;;;;;;12.27;3.83;;;7.00;99.90;;;6.34;100.00;100032.63;4218571;28;20028;-69
2023/11/10 00:29:22;;;;;;;19.15;4.25;;;7.00;99.90;;;6.37;100.00;100040.19;4234501;28;20024;-69
2023/11/10 00:31:23;;;;;;;15.13;3.42;;;7.00;99.90;;;6.37;100.00;100034.94;4218772;28;20493;-69
2023/11/10 00:33:24;;;;;;;12.68;3.15;;;7.00;99.90;;;6.40;100.00;100041.69;4226628;28;20036;-69
2023/11/10 00:35:25;;;;;;;14.35;2.17;;;7.00;99.90;;;6.36;100.00;100024.63;4219944;28;20079;-69
2023/11/10 00:37:26;;;;;;;11.30;2.13;;;7.00;99.90;;;6.37;100.00;100029.72;4218649;28;20060;-69
2023/11/10 00:39:27;;;;;;;8.30;1.92;;;7.00;99.90;;;6.32;100.00;100031.97;4218727;28;20028;-69
2023/11/10 00:41:28;;;;;;;10.93;2.03;;;7.00;99.90;;;6.30;100.00;100026.03;4218601;28;20039;-69
2023/11/10 00:43:29;;;;;;;7.28;2.25;;;6.90;99.90;;;6.29;100.00;100029.63;4225759;28;20030;-69
2023/11/10 00:45:29;;;;;;;14.13;2.28;;;7.00;99.90;;;6.30;100.00;100031.25;4217258;28;20038;-69
2023/11/10 00:47:30;;;;;;;11.35;2.80;;;6.90;99.90;;;6.28;100.00;100038.44;4218593;28;20085;-69
2023/11/10 00:49:31;;;;;;;9.02;2.60;;;6.90;99.90;;;6.29;100.00;100039.28;4218565;28;20028;-69
2023/11/10 00:51:36;;;;;;;8.32;1.88;;;6.90;99.90;;;6.27;100.00;100033.38;4218196;28;20021;-69
2023/11/10 00:53:38;;;;;;;10.27;2.13;;;6.90;99.90;;;6.25;100.00;100030.06;4238530;28;20085;-69
2023/11/10 00:55:38;;;;;;;14.02;2.70;;;6.90;99.90;;;6.27;100.00;100036.81;4218601;28;20064;-69
2023/11/10 00:57:39;;;;;;;8.30;1.90;;;6.90;99.90;;;6.30;100.00;100040.94;4218449;28;20021;-69
2023/11/10 00:59:40;;;;;;;20.23;3.60;;;6.90;99.90;;;6.31;100.00;100039.94;4219436;28;20037;-69
2023/11/10 01:01:42;;;;;;;9.65;2.42;;;6.90;99.90;;;6.26;100.00;100040.41;4223182;28;20027;-69
2023/11/10 01:03:44;;;;;;;12.88;1.77;;;6.90;99.90;;;6.27;100.00;100042.06;4227277;28;20031;-69
2023/11/10 01:05:45;;;;;;;13.32;2.30;;;6.90;99.90;;;6.23;100.00;100032.84;4218118;28;20024;-69
2023/11/10 01:07:46;;;;;;;12.75;3.47;;;6.90;99.90;;;6.23;100.00;100032.84;4218141;28;20039;-69
2023/11/10 01:09:47;;;;;;;12.25;2.40;;;6.90;99.90;;;6.23;100.00;100026.75;4218445;28;20028;-69
2023/11/10 01:11:48;;;;;;;16.48;3.35;;;6.90;99.90;;;6.24;100.00;100033.66;4218366;28;20029;-69
2023/11/10 01:13:49;;;;;;;16.58;2.35;;;6.90;99.90;;;6.32;100.00;100034.56;4229352;28;20020;-69
2023/11/10 01:15:50;;;;;;;13.73;2.60;;;6.90;99.90;;;6.32;100.00;100023.28;4220252;28;20156;-69
2023/11/10 01:17:50;;;;;;;13.10;2.42;;;6.90;99.90;;;6.30;100.00;100033.88;4234022;28;20023;-69
2023/11/10 01:19:51;;;;;;;10.68;2.30;;;6.90;99.90;;;6.26;100.00;100035.16;4225440;28;20032;-69
2023/11/10 01:21:53;;;;;;;11.90;2.90;;;6.90;99.90;;;6.28;100.00;100033.22;4224345;28;20028;-69
2023/11/10 01:23:54;;;;;;;15.80;2.97;;;6.90;99.90;;;6.26;100.00;100032.53;4230498;28;20019;-69
2023/11/10 01:25:55;;;;;;;12.65;2.58;;;6.90;99.90;;;6.23;100.00;100024.97;4222076;28;20553;-69
2023/11/10 01:27:56;;;;;;;16.60;3.80;;;6.90;99.90;;;6.23;100.00;100035.44;4235360;28;20069;-69
2023/11/10 01:29:57;;;;;;;18.83;3.53;;;6.90;99.90;;;6.24;100.00;100036.28;4235102;28;20024;-69
2023/11/10 01:31:59;;;;;;;12.90;2.95;;;6.90;99.90;;;6.29;100.00;100034.03;4238102;28;20022;-69
2023/11/10 01:34:00;;;;;;;11.70;2.97;;;6.90;99.90;;;6.30;100.00;100035.69;4233661;28;20503;-69
2023/11/10 01:36:01;;;;;;;17.80;3.65;;;6.90;99.90;;;6.27;100.00;100036.81;4227848;28;20024;-69
2023/11/10 01:38:02;;;;;;;24.40;4.70;;;6.90;99.90;;;6.27;100.00;100036.81;4236984;28;20020;-69
2023/11/10 01:40:04;;;;;;;12.70;3.10;;;6.90;99.90;;;6.31;100.00;100032.09;4238191;28;20551;-69
2023/11/10 01:42:08;;;;;;;16.70;3.10;;;6.90;99.90;;;6.36;100.00;100040.34;4237078;28;20012;-69
2023/11/10 01:44:08;;;;;;;21.58;4.10;;;6.90;99.90;;;6.34;100.00;100030.00;4229996;28;20031;-69
2023/11/10 01:46:58;;;;;;;15.43;4.10;;;6.90;99.90;;;6.33;100.00;100036.22;4237053;28;20020;-69
2023/11/10 01:48:59;;;;;;;19.55;4.82;;;7.00;99.90;;;6.36;100.00;100038.53;4219095;28;20050;-69
2023/11/10 01:51:01;;;;;;;14.77;3.58;;;7.00;99.90;;;6.42;100.00;100037.16;4219339;28;20016;-69
2023/11/10 01:53:03;;;;;;;18.30;3.85;;;7.00;99.90;;;6.42;100.00;100032.72;4230289;28;20019;-69
2023/11/10 01:55:06;;;;;;;16.15;4.07;;;7.10;99.90;;;6.47;100.00;100040.16;4221173;28;20024;-69
2023/11/10 01:57:09;;;;;;;13.77;3.55;;;7.10;99.90;;;6.50;100.00;100038.06;4236830;28;20040;-69
2023/11/10 01:59:13;;;;;;;20.25;5.15;;;7.20;99.90;;;6.56;100.00;100050.56;4221036;28;20024;-69
2023/11/10 02:01:15;;;;;;;20.50;5.40;;;7.20;99.90;;;6.65;100.00;100041.84;4236569;28;20039;-69
2023/11/10 02:03:16;;;;;;;18.48;3.35;;;7.30;99.90;;;6.75;100.00;100033.88;4222677;28;20138;-69
2023/11/10 02:05:17;;;;;;;18.45;2.80;;;7.40;99.90;;;6.78;100.00;100051.94;4236586;28;20144;-69
2023/11/10 02:07:18;;;;;;;16.55;4.07;;;7.40;99.90;;;6.81;100.00;100046.38;4220992;28;20039;-69
2023/11/10 02:09:20;;;;;;;16.27;4.15;;;7.40;99.90;;;6.77;100.00;100044.22;4220799;28;20099;-69
2023/11/10 02:11:23;;;;;;;14.13;3.72;;;7.40;99.90;;;6.71;100.00;100040.41;4236739;28;20031;-69
2023/11/10 02:13:23;;;;;;;13.88;2.78;;;7.40;99.90;;;6.67;100.00;100044.28;4220929;28;20051;-69
2023/11/10 02:15:25;;;;;;;14.20;3.35;;;7.30;99.90;;;6.63;100.00;100042.97;4236590;28;20024;-69
2023/11/10 02:17:26;;;;;;;16.70;3.90;;;7.30;99.90;;;6.62;100.00;100046.53;4220905;28;20092;-69
2023/11/10 02:19:27;;;;;;;14.45;3.80;;;7.30;99.90;;;6.59;100.00;100050.28;4224549;28;20049;-69
2023/11/10 02:21:28;;;;;;;12.65;3.17;;;7.20;99.90;;;6.66;100.00;100047.88;4230484;28;20028;-69
2023/11/10 02:23:31;;;;;;;11.38;2.42;;;7.30;99.90;;;6.75;100.00;100044.38;4219348;28;20024;-69
2023/11/10 02:25:32;;;;;;;20.27;5.57;;;7.40;99.90;;;6.90;100.00;100049.94;4236224;28;20103;-70
2023/11/10 02:27:33;;;;;;;19.25;3.63;;;7.50;99.90;;;6.98;100.00;100042.97;4236351;28;20111;-69
2023/11/10 02:29:40;;;;;;;15.38;3.92;;;7.50;99.90;;;6.98;100.00;100045.59;4220567;28;20050;-69
2023/11/10 02:31:41;;;;;;;22.83;7.18;;;7.50;99.90;;;6.89;100.00;100033.38;4236353;28;20024;-69
2023/11/10 02:33:42;;;;;;;26.55;9.75;;;7.50;99.90;;;6.75;100.00;100038.31;4228586;28;20059;-69
2023/11/10 02:35:43;;;;;;;31.45;11.77;;;7.40;99.90;;;6.67;100.00;100034.63;4220349;28;20026;-69
2023/11/10 02:37:44;;;;;;;54.22;19.60;;;7.40;99.90;;;6.63;100.00;100038.50;4220312;28;20085;-69
2023/11/10 02:39:45;;;;;;;40.00;14.05;;;7.40;99.90;;;6.59;100.00;100041.59;4220417;28;20027;-69
2023/11/10 02:41:46;;;;;;;40.58;13.63;;;7.30;99.90;;;6.43;100.00;100016.03;4219749;28;20039;-69
2023/11/10 02:43:47;;;;;;;36.42;14.52;;;7.30;99.90;;;6.54;100.00;100028.91;4219916;28;20028;-69
2023/11/10 02:45:47;;;;;;;50.88;20.20;;;7.30;99.90;;;6.55;100.00;100024.50;4225638;28;20050;-69
2023/11/10 02:47:48;;;;;;;47.90;18.98;;;7.30;99.90;;;6.68;100.00;100038.91;4227154;28;20047;-69
2023/11/10 02:49:49;;;;;;;52.90;21.38;;;7.40;99.90;;;6.75;100.00;100033.88;4220292;28;20034;-69
2023/11/10 02:51:50;;;;;;;60.33;27.42;;;7.50;99.90;;;6.74;100.00;100032.25;4235463;28;20421;-69
2023/11/10 02:53:52;;;;;;;87.63;35.30;;;7.50;99.90;;;6.73;100.00;100030.59;4229685;28;20021;-69
2023/11/10 02:55:52;;;;;;;59.50;24.17;;;7.40;99.90;;;6.71;100.00;100036.97;4226741;28;20020;-69
2023/11/10 02:57:53;;;;;;;53.38;20.75;;;7.40;99.90;;;6.64;100.00;100037.56;4220110;28;20072;-69
2023/11/10 02:59:54;;;;;;;63.33;26.60;;;7.30;99.90;;;6.57;100.00;100026.00;4219970;28;20067;-69
2023/11/10 03:01:55;;;;;;;67.28;23.88;;;7.30;99.90;;;6.50;100.00;100027.59;4220150;28;20483;-69
2023/11/10 03:03:56;;;;;;;39.92;14.32;;;7.30;99.90;;;6.50;100.00;100019.72;4220077;28;20020;-69
2023/11/10 03:05:57;;;;;;;18.98;6.45;;;7.20;99.90;;;6.48;100.00;100023.47;4219860;28;20501;-69
2023/11/10 03:07:58;;;;;;;45.25;14.90;;;7.20;99.90;;;6.41;100.00;100015.38;4219833;28;20027;-69
2023/11/10 03:09:58;;;;;;;27.10;9.35;;;7.10;99.90;;;6.43;100.00;100015.19;4235683;28;20023;-69
2023/11/10 03:11:59;;;;;;;39.70;14.55;;;7.10;99.90;;;6.42;100.00;100017.00;4218760;28;20020;-69
2023/11/10 03:14:01;;;;;;;21.52;6.07;;;7.10;99.90;;;6.42;100.00;100016.19;4219871;28;20024;-69
2023/11/10 03:16:03;;;;;;;38.17;10.20;;;7.10;99.90;;;6.40;100.00;100011.09;4219747;28;20052;-69
2023/11/10 03:18:04;;;;;;;39.08;13.13;;;7.10;99.90;;;6.40;100.00;100018.94;4224829;28;20031;-69
2023/11/10 03:20:06;;;;;;;30.02;8.38;;;7.10;99.90;;;6.39;100.00;100012.03;4244504;27;20106;-69
2023/11/10 03:22:08;;;;;;;21.65;7.57;;;7.10;99.90;;;6.43;100.00;100016.03;4224036;28;20433;-69
2023/11/10 03:24:09;;;;;;;13.38;2.88;;;7.10;99.90;;;6.52;100.00;100015.16;4219591;28;20129;-69
2023/11/10 03:26:10;;;;;;;18.10;3.42;;;7.20;99.90;;;6.63;100.00;100009.69;4235407;28;20040;-69
2023/11/10 03:28:10;;;;;;;18.33;3.70;;;7.30;99.90;;;6.73;100.00;100012.25;4219726;28;20017;-69
2023/11/10 03:30:11;;;;;;;23.40;6.35;;;7.40;99.90;;;6.90;100.00;100008.00;4219579;28;20024;-69
2023/11/10 03:32:12;;;;;;;22.60;3.58;;;7.50;99.90;;;6.97;100.00;100003.78;4219464;28;20026;-69
2023/11/10 03:34:15;;;;;;;19.45;3.95;;;7.50;99.90;;;6.98;100.00;99995.78;4227661;28;20048;-69
2023/11/10 03:36:15;;;;;;;18.92;3.70;;;7.60;99.90;;;6.98;100.00;100001.03;4219320;28;20024;-69
2023/11/10 03:38:16;;;;;;;26.45;4.30;;;7.60;99.90;;;6.98;100.00;100011.50;4219183;28;20081;-70
2023/11/10 03:40:17;;;;;;;12.82;4.28;;;7.60;99.90;;;7.06;100.00;100008.13;4219354;28;20020;-69
2023/11/10 03:42:18;;;;;;;24.27;4.03;;;7.70;99.90;;;7.06;100.00;99993.22;4219525;28;20042;-69
2023/11/10 03:44:19;;;;;;;16.83;3.83;;;7.70;99.90;;;7.14;100.00;100000.31;4219430;28;20020;-69
2023/11/10 03:46:20;;;;;;;12.73;4.95;;;7.70;99.90;;;7.18;100.00;100005.13;4228993;28;20433;-69
2023/11/10 03:48:20;;;;;;;10.82;2.80;;;7.80;99.90;;;7.28;100.00;99999.78;4220389;28;20024;-69
2023/11/10 03:50:21;;;;;;;15.32;2.63;;;7.90;99.90;;;7.40;100.00;100008.22;4234880;28;20084;-69
2023/11/10 03:52:22;;;;;;;15.95;3.78;;;8.00;99.90;;;7.52;100.00;100007.00;4219337;28;20027;-70
2023/11/10 03:54:23;;;;;;;8.38;1.98;;;8.10;99.90;;;7.52;100.00;100007.81;4218851;28;20028;-70
2023/11/10 03:56:24;;;;;;;11.27;2.65;;;8.10;99.90;;;7.44;100.00;100006.91;4219159;28;20062;-69
2023/11/10 03:58:24;;;;;;;15.25;2.78;;;8.10;99.90;;;7.41;100.00;100002.81;4243967;27;20027;-70
2023/11/10 04:00:26;;;;;;;25.23;9.88;;;8.00;99.90;;;7.36;100.00;100004.25;4218018;28;20083;-69
2023/11/10 04:02:27;;;;;;;21.13;5.43;;;7.90;99.90;;;7.26;100.00;99996.47;4219024;28;20070;-69
2023/11/10 04:04:28;;;;;;;17.92;6.72;;;7.90;99.90;;;7.18;100.00;99996.41;4219050;28;20032;-69
2023/11/10 04:06:28;;;;;;;22.40;5.35;;;7.80;99.90;;;7.04;100.00;99997.78;4218990;28;20049;-69
2023/11/10 04:08:29;;;;;;;20.40;5.43;;;7.70;99.90;;;6.98;100.00;100001.03;4219125;28;20028;-69
2023/11/10 04:10:32;;;;;;;16.05;3.42;;;7.60;99.90;;;6.89;100.00;99988.81;4219012;28;20483;-69
2023/11/10 04:12:32;;;;;;;17.92;3.97;;;7.50;99.90;;;6.88;100.00;99991.56;4234365;28;20020;-69
2023/11/10 04:14:35;;;;;;;18.58;3.42;;;7.50;99.90;;;6.87;100.00;99976.84;4219085;28;20034;-69
2023/11/10 04:16:36;;;;;;;24.85;5.07;;;7.50;99.90;;;6.89;100.00;99983.56;4218874;28;20028;-69
2023/11/10 04:18:36;;;;;;;12.18;3.40;;;7.50;99.90;;;6.85;100.00;99970.91;4218925;28;20028;-69
2023/11/10 04:20:39;;;;;;;16.02;3.45;;;7.50;99.90;;;6.81;100.00;99965.13;4232192;28;20024;-69
2023/11/10 04:22:41;;;;;;;20.92;3.75;;;7.50;99.90;;;6.85;100.00;99969.09;4218714;28;20058;-69
2023/11/10 04:24:43;;;;;;;19.65;3.50;;;7.50;99.90;;;6.89;100.00;99974.88;4218721;28;20032;-69
2023/11/10 04:26:45;;;;;;;18.52;2.80;;;7.50;99.90;;;6.90;100.00;99974.72;4218750;28;20399;-69
2023/11/10 04:28:47;;;;;;;15.38;4.40;;;7.50;99.90;;;7.03;100.00;99982.19;4234299;28;20038;-69
2023/11/10 04:30:48;;;;;;;13.93;2.83;;;7.50;99.90;;;7.13;100.00;99983.78;4222378;28;20023;-69
2023/11/10 04:32:49;;;;;;;10.77;2.65;;;7.70;99.90;;;7.20;100.00;99989.22;4229611;28;20032;-69
2023/11/10 04:34:50;;;;;;;19.20;3.67;;;7.80;99.90;;;7.35;100.00;99982.44;4224674;28;20047;-69
2023/11/10 04:36:51;;;;;;;20.85;3.88;;;7.90;99.90;;;7.51;100.00;99986.97;4220389;28;20503;-69
2023/11/10 04:38:52;;;;;;;15.75;2.67;;;8.00;99.90;;;7.58;100.00;99991.47;4235473;28;20032;-69
2023/11/10 04:40:53;;;;;;;21.23;2.80;;;8.10;99.90;;;7.67;100.00;99987.06;4235606;28;20039;-69
2023/11/10 04:42:57;;;;;;;26.58;3.88;;;8.20;99.90;;;7.76;100.00;100007.94;4235587;28;20032;-69
2023/11/10 04:44:57;;;;;;;15.95;2.67;;;8.30;99.90;;;7.86;100.00;100001.75;4235277;28;20032;-69
2023/11/10 04:46:58;;;;;;;17.50;3.55;;;8.40;99.90;;;7.97;100.00;99998.88;4235383;28;20059;-69
2023/11/10 04:48:59;;;;;;;12.35;3.40;;;8.50;99.90;;;7.98;100.00;99992.63;4235451;28;20012;-69
2023/11/10 04:51:03;;;;;;;21.88;5.35;;;8.50;99.90;;;8.01;100.00;99984.44;4235153;28;20024;-69
2023/11/10 04:53:03;;;;;;;22.48;3.60;;;8.50;99.90;;;7.94;100.00;99983.44;4219868;28;20039;-69
2023/11/10 04:55:06;;;;;;;19.52;3.95;;;8.50;99.90;;;7.82;100.00;99972.38;4222275;28;20040;-69
2023/11/10 04:57:07;;;;;;;20.85;4.28;;;8.40;99.90;;;7.78;100.00;99977.13;4235407;28;20031;-70
2023/11/10 04:59:08;;;;;;;16.35;4.95;;;8.40;99.90;;;7.72;100.00;99980.38;4235256;28;20031;-70
2023/11/10 05:01:08;;;;;;;14.35;3.33;;;8.30;99.90;;;7.61;100.00;99979.81;4234084;28;20440;-70
2023/11/10 05:03:10;;;;;;;21.63;3.42;;;8.20;99.90;;;7.51;100.00;99982.53;4235480;28;20487;-69
2023/11/10 05:05:15;;;;;;;16.42;3.30;;;8.10;99.90;;;7.46;100.00;99982.19;4235317;28;20574;-69
2023/11/10 05:07:16;;;;;;;23.05;3.25;;;8.10;99.90;;;7.36;100.00;99968.34;4228072;28;20034;-69
2023/11/10 05:09:17;;;;;;;22.75;3.60;;;8.00;99.90;;;7.36;100.00;99968.34;4221881;28;20728;-70
2023/11/10 05:11:17;;;;;;;15.18;3.15;;;8.00;99.90;;;7.36;100.00;99976.22;4237674;28;20024;-70
2023/11/10 05:13:18;;;;;;;9.98;3.15;;;8.00;99.90;;;7.35;100.00;99982.44;4221835;28;20031;-70
2023/11/10 05:15:19;;;;;;;17.00;3.22;;;8.00;99.90;;;7.35;100.00;99984.25;4221787;28;20067;-69
2023/11/10 05:17:21;;;;;;;17.35;2.88;;;8.00;99.90;;;7.39;100.00;99983.78;4221638;28;20024;-70
2023/11/10 05:19:22;;;;;;;17.25;3.15;;;8.00;99.90;;;7.41;100.00;99981.81;4224835;28;20027;-69
2023/11/10 05:21:23;;;;;;;15.63;2.45;;;8.00;99.90;;;7.40;100.00;99967.06;4232132;28;20396;-69
2023/11/10 05:23:24;;;;;;;12.43;3.25;;;8.00;99.90;;;7.37;100.00;99979.66;4221686;28;20025;-69
2023/11/10 05:25:25;;;;;;;17.00;2.22;;;8.00;99.90;;;7.33;100.00;99966.03;4221650;28;20521;-69
2023/11/10 05:27:25;;;;;;;16.98;2.90;;;8.00;99.90;;;7.39;100.00;99980.31;4221585;28;20383;-69
2023/11/10 05:29:26;;;;;;;17.27;2.60;;;8.00;99.90;;;7.49;100.00;99983.69;4221756;28;20032;-69
2023/11/10 05:31:27;;;;;;;13.85;3.20;;;8.10;99.90;;;7.54;100.00;99977.00;4221634;28;20032;-69
2023/11/10 05:33:29;;;;;;;16.10;2.92;;;8.20;99.90;;;7.64;100.00;99997.88;4228176;28;20036;-69
2023/11/10 05:35:30;;;;;;;12.85;3.17;;;8.20;99.90;;;7.66;100.00;99990.66;4221950;28;20544;-69
2023/11/10 05:37:31;;;;;;;16.48;3.10;;;8.30;99.90;;;7.70;100.00;99999.88;4237118;28;20036;-69
2023/11/10 05:39:35;;;;;;;20.58;3.70;;;8.30;99.90;;;7.67;100.00;99987.91;4229480;28;20065;-69
2023/11/10 05:41:36;;;;;;;19.95;3.67;;;8.30;99.90;;;7.79;100.00;100002.38;4224180;28;20028;-69
2023/11/10 05:43:37;;;;;;;15.23;3.10;;;8.30;99.90;;;7.84;100.00;100003.72;4221209;28;20039;-69
2023/11/10 05:45:38;;;;;;;16.00;2.83;;;8.40;99.90;;;7.87;100.00;100000.78;4237048;28;20035;-69
2023/11/10 05:47:39;;;;;;;18.45;2.70;;;8.40;99.90;;;7.90;100.00;99992.59;4221232;28;20032;-69
2023/11/10 05:49:41;;;;;;;18.55;2.95;;;8.50;99.90;;;8.01;100.00;100002.81;4232401;28;20483;-69
2023/11/10 05:51:41;;;;;;;20.40;2.58;;;8.50;99.90;;;8.12;100.00;99990.22;4228540;28;20027;-69
2023/11/10 05:53:42;;;;;;;13.75;2.35;;;8.60;99.90;;;8.09;100.00;99993.19;4221208;28;20028;-69
2023/11/10 05:55:44;;;;;;;10.85;2.45;;;8.60;99.90;;;8.11;100.00;99974.63;4221172;28;20065;-69
2023/11/10 05:57:44;;;;;;;12.95;2.75;;;8.70;99.90;;;8.09;100.00;99979.22;4236940;28;20031;-69
2023/11/10 05:59:46;;;;;;;10.95;2.35;;;8.60;99.90;;;8.09;100.00;99966.09;4220965;28;20395;-69
2023/11/10 06:01:47;;;;;;;12.55;2.67;;;8.70;99.90;;;8.12;100.00;99971.03;4221126;28;20034;-69
2023/11/10 06:03:48;;;;;;;10.43;2.75;;;8.60;99.90;;;8.05;100.00;99970.00;4221231;28;20418;-69
2023/11/10 06:05:49;;;;;;;10.50;2.10;;;8.60;99.90;;;7.99;100.00;99968.00;4219464;28;20028;-69
2023/11/10 06:07:50;;;;;;;11.05;1.38;;;8.60;99.90;;;8.05;100.00;99977.88;4220909;28;20020;-69
2023/11/10 06:09:51;;;;;;;7.30;1.30;;;8.60;99.90;;;8.04;100.00;99963.09;4236650;28;20032;-69
2023/11/10 06:11:53;;;;;;;7.10;1.23;;;8.60;99.90;;;8.15;100.00;99975.97;4220951;28;20543;-69
2023/11/10 06:13:56;;;;;;;10.00;1.60;;;8.60;99.90;;;8.12;100.00;99978.91;4236525;28;20027;-69
2023/11/10 06:15:59;;;;;;;9.52;1.30;;;8.60;99.90;;;8.00;100.00;99975.75;4220757;28;20515;-69
2023/11/10 06:18:00;;;;;;;8.45;1.02;;;8.60;99.90;;;7.95;100.00;99977.19;4236343;28;20445;-69
2023/11/10 06:20:01;;;;;;;5.10;1.08;;;8.60;99.90;;;7.98;100.00;99982.94;4229015;28;20024;-69
2023/11/10 06:22:02;;;;;;;5.18;1.30;;;8.50;99.90;;;7.89;100.00;99980.44;4227090;28;20031;-69
2023/11/10 06:24:04;;;;;;;6.45;1.60;;;8.50;99.90;;;7.90;100.00;99984.72;4222158;28;20032;-69
2023/11/10 06:26:06;;;;;;;4.75;1.90;;;8.50;99.90;;;7.84;100.00;99987.97;4220680;28;20398;-69
2023/11/10 06:28:07;;;;;;;8.00;1.50;;;8.50;99.90;;;7.78;100.00;99987.63;4220666;28;20035;-69
2023/11/10 06:30:09;;;;;;;6.65;1.52;;;8.40;99.90;;;7.82;100.00;99988.16;4220567;28;20027;-70
2023/11/10 06:32:11;;;;;;;5.43;1.08;;;8.40;99.90;;;7.75;100.00;99992.34;4220483;28;20024;-69
2023/11/10 06:34:12;;;;;;;7.35;1.73;;;8.40;99.90;;;7.76;100.00;99986.16;4228281;28;20032;-69
2023/11/10 06:36:14;;;;;;;5.60;1.58;;;8.40;99.90;;;7.86;100.00;99996.50;4220395;28;20077;-69
2023/11/10 06:38:15;;;;;;;7.55;1.90;;;8.40;99.90;;;7.93;100.00;100002.78;4220263;28;20050;-69
2023/11/10 06:40:16;;;;;;;8.35;1.45;;;8.50;99.90;;;7.98;100.00;99998.69;4220349;28;20028;-69
2023/11/10 06:42:17;;;;;;;7.97;1.42;;;8.60;99.90;;;8.02;100.00;100000.03;4236196;28;20115;-69
2023/11/10 06:44:19;;;;;;;7.43;1.70;;;8.60;99.90;;;8.06;100.00;100003.19;4219203;28;20028;-69
2023/11/10 06:46:26;;;;;;;8.57;1.20;;;8.60;99.90;;;8.09;100.00;100010.75;4220414;28;20024;-69
2023/11/10 06:48:27;;;;;;;5.75;1.30;;;8.70;99.90;;;8.13;100.00;100009.44;4235353;28;20035;-70
2023/11/10 06:50:29;;;;;;;8.05;1.52;;;8.70;99.90;;;8.12;100.00;100002.56;4220193;28;20153;-69
2023/11/10 06:52:30;;;;;;;12.38;2.38;;;8.70;99.90;;;8.14;100.00;99995.31;4236092;28;20028;-69
2023/11/10 06:54:30;;;;;;;8.13;1.88;;;8.70;99.90;;;8.18;100.00;99999.28;4229275;28;20022;-69
2023/11/10 06:56:32;;;;;;;12.10;2.25;;;8.70;99.90;;;8.15;100.00;99989.09;4235688;28;20023;-69
2023/11/10 06:58:32;;;;;;;7.65;2.70;;;8.70;99.90;;;8.14;100.00;99993.53;4237132;28;20080;-69
2023/11/10 07:00:33;;;;;;;11.20;2.35;;;8.70;99.90;;;8.20;100.00;99994.69;4227741;28;20077;-69
2023/11/10 07:02:34;;;;;;;13.30;1.70;;;8.70;99.90;;;8.22;100.00;99993.56;4235800;28;20426;-69
2023/11/10 07:04:39;;;;;;;13.80;2.65;;;8.70;99.90;;;8.07;100.00;99989.88;4219968;28;20031;-69
2023/11/10 07:06:40;;;;;;;11.18;2.08;;;8.70;99.90;;;7.98;100.00;99990.00;4223141;28;20054;-69
2023/11/10 07:08:42;;;;;;;11.23;2.63;;;8.60;99.90;;;7.91;100.00;99999.50;4227636;28;20032;-69
2023/11/10 07:10:44;;;;;;;25.10;3.95;;;8.50;99.90;;;7.89;100.00;99996.19;4220866;28;20016;-69
2023/11/10 07:12:46;;;;;;;11.90;2.80;;;8.40;99.90;;;7.80;100.00;99990.91;4220449;28;20023;-69
2023/11/10 07:14:47;;;;;;;12.07;2.10;;;8.40;99.90;;;7.71;100.00;99991.84;4240574;27;20019;-69
2023/11/10 07:16:49;;;;;;;16.30;3.20;;;8.30;99.90;;;7.70;100.00;99982.34;4227422;28;20024;-69
2023/11/10 07:18:52;;;;;;;16.42;1.98;;;8.30;99.90;;;7.64;100.00;99982.13;4235471;28;20027;-69
2023/11/10 07:20:54;;;;;;;15.57;6.05;;;8.20;99.90;;;7.64;100.00;99977.72;4233078;28;20045;-69
2023/11/10 07:22:55;;;;;;;12.50;3.88;;;8.30;99.90;;;7.66;100.00;99981.00;4223741;28;20051;-69
2023/11/10 07:24:55;;;;;;;12.68;2.65;;;8.20;99.90;;;7.67;100.00;99982.66;4227785;28;20089;-69
2023/11/10 07:26:56;;;;;;;16.25;5.38;;;8.20;99.90;;;7.72;100.00;99984.78;4219614;28;20038;-70
2023/11/10 07:29:02;;;;;;;8.88;2.25;;;8.20;99.90;;;7.71;100.00;99994.47;4236942;27;20032;-69
2023/11/10 07:31:03;;;;;;;18.85;3.25;;;8.30;99.90;;;7.66;100.00;99993.28;4230751;28;20055;-69
2023/11/10 07:33:04;;;;;;;11.90;3.47;;;8.30;99.90;;;7.62;100.00;99989.31;4224404;28;20483;-69
2023/11/10 07:35:05;;;;;;;15.95;5.50;;;8.20;99.90;;;7.56;100.00;99984.69;4223982;28;20031;-69
2023/11/10 07:37:06;;;;;;;15.70;4.93;;;8.20;99.90;;;7.53;100.00;99985.81;4234993;28;20027;-69
2023/11/10 07:39:08;;;;;;;11.52;3.30;;;8.20;99.90;;;7.51;100.00;99995.66;4235207;28;20068;-70
2023/11/10 07:41:09;;;;;;;15.18;4.43;;;8.10;99.90;;;7.51;100.00;99998.28;4218429;28;20051;-69
2023/11/10 07:43:11;;;;;;;13.45;4.53;;;8.10;99.90;;;7.47;100.00;99993.50;4225126;28;20024;-69
2023/11/10 07:45:17;;;;;;;11.93;3.67;;;8.10;99.90;;;7.48;100.00;100000.41;4220431;28;20020;-69
2023/11/10 07:47:18;;;;;;;37.28;11.93;;;8.10;99.90;;;7.46;100.00;100000.56;4219437;28;20047;-69
2023/11/10 07:49:19;;;;;;;23.13;8.82;;;8.10;99.90;;;7.43;100.00;99998.25;4219441;28;20020;-69
2023/11/10 07:51:19;;;;;;;18.20;5.55;;;8.10;99.90;;;7.48;100.00;100006.47;4219471;28;20031;-69
2023/11/10 07:53:20;;;;;;;15.57;4.80;;;8.10;99.90;;;7.47;100.00;100004.00;4223946;28;20060;-69
2023/11/10 07:55:22;;;;;;;17.55;2.85;;;8.10;99.90;;;7.51;100.00;100007.97;4219642;28;20020;-69
2023/11/10 07:57:23;;;;;;;5.57;2.08;;;8.10;99.90;;;7.49;100.00;99991.56;4219204;28;20020;-69
2023/11/10 07:59:23;;;;;;;13.88;4.40;;;8.10;99.90;;;7.46;100.00;99997.13;4219177;28;20042;-69
2023/11/10 08:01:24;;;;;;;11.10;2.80;;;8.10;99.90;;;7.53;100.00;100001.56;4233711;28;20032;-69
2023/11/10 08:03:25;;;;;;;15.23;3.50;;;8.10;99.90;;;7.51;100.00;99993.03;4229140;28;20121;-69
2023/11/10 08:05:26;;;;;;;16.95;3.90;;;8.10;99.90;;;7.62;100.00;100000.66;4219122;28;20036;-69
2023/11/10 08:07:28;;;;;;;15.15;3.45;;;8.20;99.90;;;7.70;100.00;100005.97;4234942;28;20036;-69
2023/11/10 08:09:29;;;;;;;13.13;2.30;;;8.30;99.90;;;7.88;100.00;100000.66;4219085;28;20020;-69
2023/11/10 08:11:31;;;;;;;17.95;4.28;;;8.40;99.90;;;7.89;100.00;100012.78;4219137;28;20391;-69
2023/11/10 08:13:37;;;;;;;18.30;3.80;;;8.50;99.90;;;7.88;100.00;100012.94;4227483;28;20016;-69
2023/11/10 08:15:38;;;;;;;12.18;3.53;;;8.50;99.90;;;7.87;100.00;99999.00;4222799;28;20028;-70
2023/11/10 08:17:39;;;;;;;19.65;4.53;;;8.50;99.90;;;7.94;100.00;99992.13;4219611;28;20016;-69
2023/11/10 08:19:41;;;;;;;18.48;3.80;;;8.50;99.90;;;7.89;100.00;99986.50;4224711;28;20042;-69
2023/11/10 08:21:42;;;;;;;14.50;4.03;;;8.50;99.90;;;7.94;100.00;99996.56;4226710;28;20050;-69
2023/11/10 08:23:42;;;;;;;16.17;3.47;;;8.50;99.90;;;8.00;100.00;99998.56;4228349;28;20028;-69
2023/11/10 08:25:43;;;;;;;15.68;2.65;;;8.60;99.90;;;8.00;100.00;99991.50;4219971;28;20024;-69
2023/11/10 08:27:44;;;;;;;18.45;3.58;;;8.60;99.90;;;8.04;100.00;100000.69;4218925;28;20038;-69